Time;durP1;ratioP1;P1;durP2;ratioP2;P2;SDS_P1;SDS_P2;PMS_P1;PMS_P2;Temp;Humidity;BMP_temperature;BMP_pressure;BME280_temperature;BME280_humidity;BME280_pressure;Samples;Min_cycle;Max_cycle;Signal;HPM_P1;HPM_P2
2022/08/04 00:01:25;;;;;;;8.67;7.97;;;23.40;1.00;;;;;;6246479;28;20242;-54
2022/08/04 00:04:38;;;;;;;8.50;7.90;;;23.30;1.00;;;;;;6246295;28;20234;-54
2022/08/04 00:07:48;;;;;;;8.47;7.87;;;23.40;1.00;;;;;;6236027;28;20241;-54
2022/08/04 00:10:54;;;;;;;8.70;8.00;;;23.30;1.00;;;;;;6236967;28;20252;-55
2022/08/04 00:14:03;;;;;;;8.20;7.70;;;23.30;1.00;;;;;;6248550;28;20439;-54
2022/08/04 00:17:07;;;;;;;8.17;7.33;;;23.30;1.00;;;;;;6236365;28;20621;-53
2022/08/04 00:20:12;;;;;;;8.20;7.60;;;23.30;1.00;;;;;;6236376;28;20250;-53
2022/08/04 00:23:18;;;;;;;8.10;7.50;;;23.30;1.00;;;;;;6241862;28;20785;-54
2022/08/04 00:26:21;;;;;;;8.67;7.83;;;23.30;1.00;;;;;;6251954;28;20233;-52
2022/08/04 00:29:26;;;;;;;8.67;8.07;;;23.30;1.00;;;;;;6259526;28;20272;-55
2022/08/04 00:32:30;;;;;;;8.23;7.63;;;23.30;1.00;;;;;;6258497;28;20803;-52
2022/08/04 00:35:38;;;;;;;8.43;7.73;;;23.20;1.00;;;;;;6244429;28;20504;-54
2022/08/04 00:38:41;;;;;;;8.23;7.63;;;23.20;1.00;;;;;;6235970;28;20249;-54
2022/08/04 00:42:03;;;;;;;8.63;7.97;;;23.20;1.00;;;;;;6235132;28;20289;-55
2022/08/04 00:45:40;;;;;;;7.97;7.47;;;23.20;1.00;;;;;;6238776;28;20693;-53
2022/08/04 00:49:26;;;;;;;9.47;8.20;;;23.20;1.00;;;;;;6254934;28;20241;-53
2022/08/04 00:52:41;;;;;;;8.40;7.70;;;23.10;1.00;;;;;;6249031;28;20235;-53
2022/08/04 00:56:08;;;;;;;8.07;7.47;;;23.10;1.00;;;;;;6243654;28;20309;-55
2022/08/04 00:59:22;;;;;;;7.87;7.27;;;23.10;1.00;;;;;;6234929;28;20984;-55
2022/08/04 01:02:35;;;;;;;7.60;7.13;;;23.10;1.00;;;;;;6237156;28;20598;-54
2022/08/04 01:05:51;;;;;;;7.63;7.17;;;23.10;1.00;;;;;;6243108;28;20847;-54
2022/08/04 01:09:03;;;;;;;7.57;7.07;;;23.10;1.00;;;;;;6234886;28;20489;-54
2022/08/04 01:12:32;;;;;;;7.77;7.20;;;23.00;1.00;;;;;;6234751;28;20245;-55
2022/08/04 01:15:44;;;;;;;7.63;7.13;;;23.00;1.00;;;;;;6234739;28;20237;-55
2022/08/04 01:19:12;;;;;;;8.10;7.47;;;23.00;1.00;;;;;;6238328;28;20226;-53
2022/08/04 01:22:27;;;;;;;8.23;7.73;;;23.00;1.00;;;;;;6258670;28;20245;-54
2022/08/04 01:25:59;;;;;;;7.10;6.80;;;23.00;1.00;;;;;;6248604;28;20299;-53
2022/08/04 01:29:08;;;;;;;7.90;7.43;;;22.90;1.00;;;;;;6191306;28;20454;-54
2022/08/04 01:32:19;;;;;;;8.13;7.60;;;22.90;1.00;;;;;;6234559;28;20238;-54
2022/08/04 01:35:33;;;;;;;7.53;7.03;;;22.80;1.00;;;;;;6250220;28;20653;-55
2022/08/04 01:38:56;;;;;;;8.03;7.53;;;22.80;1.00;;;;;;6258596;28;20237;-54
2022/08/04 01:42:02;;;;;;;8.73;8.23;;;22.80;1.00;;;;;;6258746;28;20284;-54
2022/08/04 01:45:09;;;;;;;7.43;6.93;;;22.80;1.00;;;;;;6258671;28;20317;-54
2022/08/04 01:48:12;;;;;;;7.40;7.00;;;22.70;1.00;;;;;;6234984;28;20304;-55
2022/08/04 01:51:16;;;;;;;9.23;8.43;;;22.70;1.00;;;;;;6234333;28;20380;-53
2022/08/04 01:54:21;;;;;;;7.57;7.07;;;22.70;1.00;;;;;;6241267;28;20333;-54
2022/08/04 01:57:25;;;;;;;7.27;6.60;;;22.70;1.00;;;;;;6236578;28;20231;-54
2022/08/04 02:00:50;;;;;;;7.53;7.03;;;22.60;1.00;;;;;;6247511;28;20515;-54
2022/08/04 02:03:58;;;;;;;6.83;6.43;;;22.60;1.00;;;;;;6252429;28;20222;-53
2022/08/04 02:07:42;;;;;;;7.67;6.97;;;22.60;1.00;;;;;;6235149;28;20688;-53
2022/08/04 02:10:59;;;;;;;6.97;6.57;;;22.50;1.00;;;;;;6233047;28;20361;-53
2022/08/04 02:14:13;;;;;;;7.47;6.97;;;22.50;1.00;;;;;;6233441;28;20852;-54
2022/08/04 02:17:26;;;;;;;6.93;6.60;;;22.40;1.00;;;;;;6232945;28;20300;-54
2022/08/04 02:20:33;;;;;;;6.93;6.53;;;22.40;1.00;;;;;;6233876;28;20261;-53
2022/08/04 02:23:39;;;;;;;7.17;6.77;;;22.40;1.00;;;;;;6237006;28;20285;-54
2022/08/04 02:26:46;;;;;;;6.87;6.37;;;22.30;1.00;;;;;;6245469;28;20371;-53
2022/08/04 02:29:54;;;;;;;6.50;6.10;;;22.30;1.00;;;;;;6251097;28;20782;-54
2022/08/04 02:33:10;;;;;;;7.00;6.50;;;22.30;1.00;;;;;;6246531;28;20280;-53
2022/08/04 02:36:20;;;;;;;6.53;6.13;;;22.30;1.00;;;;;;6251995;28;20325;-54
2022/08/04 02:39:23;;;;;;;7.00;6.50;;;22.20;1.00;;;;;;6243297;28;20254;-54
2022/08/04 02:42:27;;;;;;;7.07;6.57;;;22.20;1.00;;;;;;6243692;28;20239;-55
2022/08/04 02:45:35;;;;;;;7.17;6.67;;;22.20;1.00;;;;;;6233248;28;20321;-53
2022/08/04 02:48:43;;;;;;;7.30;6.77;;;22.10;1.00;;;;;;6232893;28;20346;-54
2022/08/04 02:51:50;;;;;;;6.33;6.03;;;22.10;1.00;;;;;;6233525;28;20490;-55
2022/08/04 02:54:55;;;;;;;6.73;6.33;;;22.10;1.00;;;;;;6243592;28;20252;-54
2022/08/04 02:58:01;;;;;;;7.30;6.83;;;22.00;1.00;;;;;;6233746;28;20250;-54
2022/08/04 03:01:04;;;;;;;6.20;5.90;;;22.00;1.00;;;;;;6233044;28;20238;-53
2022/08/04 03:04:26;;;;;;;6.50;6.20;;;22.00;1.00;;;;;;6245024;28;20239;-55
2022/08/04 03:07:53;;;;;;;6.13;5.77;;;21.90;1.00;;;;;;6256074;28;20313;-55
2022/08/04 03:11:24;;;;;;;6.53;6.20;;;21.90;1.00;;;;;;6245708;28;20279;-55
2022/08/04 03:15:07;;;;;;;6.13;5.77;;;21.80;1.00;;;;;;6248421;28;20321;-55
2022/08/04 03:18:37;;;;;;;6.37;5.97;;;21.80;1.00;;;;;;6256764;28;20227;-54
2022/08/04 03:22:14;;;;;;;6.23;5.63;;;21.80;1.00;;;;;;6233420;28;20241;-55
2022/08/04 03:25:41;;;;;;;5.67;5.33;;;21.70;1.00;;;;;;6241718;28;20894;-53
2022/08/04 03:29:39;;;;;;;6.13;5.73;;;21.70;1.00;;;;;;6211937;28;20278;-55
2022/08/04 03:33:14;;;;;;;5.43;5.23;;;21.70;1.00;;;;;;6221537;28;20372;-55
2022/08/04 03:36:48;;;;;;;5.40;5.20;;;21.70;1.00;;;;;;6247639;28;20725;-54
2022/08/04 03:40:22;;;;;;;5.63;5.43;;;21.60;1.00;;;;;;6247946;28;20230;-53
2022/08/04 03:43:50;;;;;;;5.60;5.40;;;21.60;1.00;;;;;;6248605;28;20333;-53
2022/08/04 03:47:36;;;;;;;5.87;5.67;;;21.60;1.00;;;;;;6244754;28;20230;-53
2022/08/04 03:55:17;;;;;;;5.73;5.43;;;21.50;1.00;;;;;;6255415;28;20242;-53
2022/08/04 03:58:52;;;;;;;5.37;5.17;;;21.50;1.00;;;;;;6248887;28;20296;-55
2022/08/04 04:02:31;;;;;;;6.17;5.80;;;21.50;1.00;;;;;;6208280;28;20321;-54
2022/08/04 04:06:08;;;;;;;6.33;6.03;;;21.50;1.00;;;;;;6258505;28;20439;-55
2022/08/04 04:09:47;;;;;;;6.20;5.97;;;21.50;1.00;;;;;;6250001;28;20364;-53
2022/08/04 04:13:43;;;;;;;6.80;6.50;;;21.50;1.00;;;;;;6249314;28;20234;-54
2022/08/04 04:17:05;;;;;;;6.70;6.30;;;21.60;1.00;;;;;;6251271;28;20250;-54
2022/08/04 04:20:28;;;;;;;7.87;7.10;;;21.60;1.00;;;;;;6250170;28;20296;-52
2022/08/04 04:23:43;;;;;;;7.10;6.80;;;21.60;1.00;;;;;;6255094;28;20323;-53
2022/08/04 04:26:56;;;;;;;8.90;8.10;;;21.60;1.00;;;;;;6252587;28;20705;-53
2022/08/04 04:30:05;;;;;;;7.20;6.70;;;21.60;1.00;;;;;;6246991;28;20489;-55
2022/08/04 04:33:28;;;;;;;7.70;7.30;;;21.70;1.00;;;;;;6244809;28;20375;-54
2022/08/04 04:36:43;;;;;;;8.27;7.70;;;21.70;1.00;;;;;;6242719;28;20931;-54
2022/08/04 04:39:57;;;;;;;8.57;8.00;;;21.70;1.00;;;;;;6257970;28;20240;-55
2022/08/04 04:43:16;;;;;;;8.50;7.90;;;21.80;1.00;;;;;;6249067;28;20523;-53
2022/08/04 04:46:29;;;;;;;8.87;8.03;;;21.80;1.00;;;;;;6257474;28;20678;-55
2022/08/04 04:49:40;;;;;;;8.27;7.87;;;21.90;1.00;;;;;;6250969;28;20249;-55
2022/08/04 04:52:50;;;;;;;8.40;7.87;;;21.90;1.00;;;;;;6247468;28;20299;-53
2022/08/04 04:56:00;;;;;;;7.40;7.00;;;21.90;1.00;;;;;;6255075;28;20303;-53
2022/08/04 04:59:09;;;;;;;8.57;8.10;;;22.00;1.00;;;;;;6248024;28;20245;-55
2022/08/04 05:02:36;;;;;;;8.43;7.93;;;22.00;1.00;;;;;;6248915;28;20231;-54
2022/08/04 05:06:13;;;;;;;8.40;8.00;;;22.20;1.00;;;;;;6254024;28;20318;-54
2022/08/04 05:09:35;;;;;;;8.90;8.10;;;22.30;1.00;;;;;;6205078;28;20719;-54
2022/08/04 05:12:51;;;;;;;8.30;7.90;;;22.40;1.00;;;;;;6257137;28;20262;-54
2022/08/04 05:16:18;;;;;;;9.30;8.40;;;22.60;1.00;;;;;;6258363;28;20602;-55
2022/08/04 05:19:27;;;;;;;8.77;8.07;;;22.80;1.00;;;;;;6252236;28;20267;-55
2022/08/04 05:22:35;;;;;;;12.70;8.33;;;23.00;1.00;;;;;;6249617;28;20238;-55
2022/08/04 05:25:43;;;;;;;8.23;7.67;;;23.10;1.00;;;;;;6250477;28;20700;-55
2022/08/04 05:29:07;;;;;;;8.60;8.00;;;23.40;1.00;;;;;;6246483;28;20715;-54
2022/08/04 05:32:14;;;;;;;12.03;9.70;;;23.60;1.00;;;;;;6257105;28;20233;-54
2022/08/04 05:35:27;;;;;;;9.00;8.27;;;23.90;1.00;;;;;;6246984;28;20241;-55
2022/08/04 05:38:58;;;;;;;9.27;8.57;;;24.10;1.00;;;;;;6249487;28;20245;-55
2022/08/04 05:42:04;;;;;;;9.97;9.00;;;24.40;1.00;;;;;;6251933;28;20242;-55
2022/08/04 05:45:09;;;;;;;9.40;8.57;;;24.50;1.00;;;;;;6247077;28;20591;-53
2022/08/04 05:48:13;;;;;;;9.30;8.50;;;24.80;1.00;;;;;;6248611;28;20743;-53
2022/08/04 05:51:16;;;;;;;11.60;8.60;;;25.10;1.00;;;;;;6251171;28;20479;-55
2022/08/04 05:54:22;;;;;;;10.20;8.60;;;25.30;1.00;;;;;;6252384;28;20234;-55
2022/08/04 05:57:25;;;;;;;11.70;8.97;;;25.60;1.00;;;;;;6250314;28;20284;-54
2022/08/04 06:00:30;;;;;;;8.97;8.13;;;25.80;1.00;;;;;;6250153;28;20329;-54
2022/08/04 06:03:45;;;;;;;10.10;9.13;;;26.00;1.00;;;;;;6246817;28;20245;-55
2022/08/04 06:06:48;;;;;;;9.60;8.70;;;26.30;1.00;;;;;;6254251;28;20266;-54
2022/08/04 06:09:53;;;;;;;10.47;9.10;;;26.50;1.00;;;;;;6249948;28;20229;-53
2022/08/04 06:13:01;;;;;;;10.27;8.80;;;26.60;1.00;;;;;;6242633;28;20235;-54
2022/08/04 06:16:06;;;;;;;13.10;8.53;;;26.80;1.00;;;;;;6249497;28;20227;-54
2022/08/04 06:19:13;;;;;;;10.57;8.53;;;27.00;1.00;;;;;;6239360;28;20564;-53
2022/08/04 06:22:41;;;;;;;10.80;8.80;;;27.20;1.00;;;;;;6256938;28;20260;-53
2022/08/04 06:25:49;;;;;;;14.87;8.67;;;27.50;1.00;;;;;;6248341;28;20851;-54
2022/08/04 06:28:53;;;;;;;13.63;9.37;;;27.70;1.00;;;;;;6243461;28;20243;-56
2022/08/04 06:31:58;;;;;;;11.07;9.43;;;28.00;1.00;;;;;;6248852;28;20603;-55
2022/08/04 06:35:22;;;;;;;14.50;9.53;;;28.20;1.00;;;;;;6238511;28;20811;-54
2022/08/04 06:38:27;;;;;;;9.93;8.88;;;28.40;1.00;;;;;;6240190;28;20234;-54
2022/08/04 06:41:32;;;;;;;14.53;9.67;;;28.60;1.00;;;;;;6242419;28;20518;-55
2022/08/04 06:44:37;;;;;;;13.37;9.10;;;28.90;1.00;;;;;;6247362;28;20628;-54
2022/08/04 06:47:41;;;;;;;16.38;9.27;;;29.10;1.00;;;;;;6255301;28;20802;-55
2022/08/04 06:50:47;;;;;;;16.65;8.60;;;29.30;1.00;;;;;;6242107;28;20242;-54
2022/08/04 06:54:10;;;;;;;9.73;8.07;;;29.40;1.00;;;;;;6247369;28;20238;-55
2022/08/04 06:57:19;;;;;;;14.20;8.65;;;29.60;1.00;;;;;;6253585;28;20355;-58
2022/08/04 07:00:23;;;;;;;14.27;8.23;;;29.80;1.00;;;;;;6242957;28;20238;-54
2022/08/04 07:03:28;;;;;;;12.02;7.82;;;30.00;1.00;;;;;;6256954;28;20443;-54
2022/08/04 07:06:31;;;;;;;14.38;8.63;;;30.20;1.00;;;;;;6251806;28;20734;-55
2022/08/04 07:09:34;;;;;;;8.77;7.75;;;30.40;1.00;;;;;;6245880;28;20409;-55
2022/08/04 07:12:39;;;;;;;11.52;7.68;;;30.40;1.00;;;;;;6255438;28;20230;-53
2022/08/04 07:15:45;;;;;;;7.35;6.95;;;30.50;1.00;;;;;;6248339;28;20364;-49
2022/08/04 07:18:48;;;;;;;8.73;8.05;;;30.60;1.00;;;;;;6248235;28;20291;-53
2022/08/04 07:21:51;;;;;;;8.95;7.13;;;30.60;1.00;;;;;;6256542;28;20230;-54
2022/08/04 07:25:15;;;;;;;8.07;7.38;;;30.70;1.00;;;;;;6250023;28;20238;-56
2022/08/04 07:28:20;;;;;;;8.63;7.13;;;30.80;1.00;;;;;;6250910;28;20230;-53
2022/08/04 07:31:24;;;;;;;8.07;7.25;;;30.80;1.00;;;;;;6248031;28;20670;-55
2022/08/04 07:34:38;;;;;;;8.23;7.63;;;30.70;1.00;;;;;;6250401;28;20234;-54
2022/08/04 07:37:41;;;;;;;11.02;7.43;;;30.60;1.00;;;;;;6256802;28;20422;-55
2022/08/04 07:40:46;;;;;;;9.73;7.18;;;30.60;1.00;;;;;;6253743;28;20395;-56
2022/08/04 07:43:50;;;;;;;8.35;7.30;;;30.60;1.00;;;;;;6261831;28;20617;-55
2022/08/04 07:46:53;;;;;;;8.35;7.47;;;30.50;1.00;;;;;;6253723;28;20680;-56
2022/08/04 07:49:57;;;;;;;8.88;7.22;;;30.50;1.00;;;;;;6257972;28;20234;-54
2022/08/04 07:53:01;;;;;;;8.70;7.60;;;30.50;1.00;;;;;;6256595;28;20621;-54
2022/08/04 07:56:25;;;;;;;12.77;7.18;;;30.40;1.00;;;;;;6259203;28;20242;-55
2022/08/04 07:59:30;;;;;;;7.70;7.07;;;30.30;1.00;;;;;;6244750;28;20270;-53
2022/08/04 08:02:34;;;;;;;10.02;7.00;;;30.40;1.00;;;;;;6242721;28;20249;-54
2022/08/04 08:05:39;;;;;;;9.93;7.45;;;30.40;1.00;;;;;;6259346;28;20261;-55
2022/08/04 08:09:11;;;;;;;10.15;6.45;;;30.30;1.00;;;;;;6253669;28;20243;-55
2022/08/04 08:12:16;;;;;;;10.80;7.10;;;30.30;1.00;;;;;;6253147;28;20226;-56
2022/08/04 08:15:43;;;;;;;7.32;6.72;;;30.30;1.00;;;;;;6253130;28;20245;-54
2022/08/04 08:18:46;;;;;;;7.10;6.47;;;30.10;1.00;;;;;;6246229;28;20254;-54
2022/08/04 08:21:52;;;;;;;10.52;6.47;;;30.20;1.00;;;;;;6258165;28;20313;-56
2022/08/04 08:25:02;;;;;;;7.68;6.75;;;30.20;1.00;;;;;;6240289;28;20313;-54
2022/08/04 08:28:06;;;;;;;7.07;6.38;;;30.30;1.00;;;;;;6252362;28;20717;-54
2022/08/04 08:31:10;;;;;;;12.50;6.85;;;30.30;1.00;;;;;;6257515;28;20617;-53
2022/08/04 08:34:14;;;;;;;10.63;6.82;;;30.40;1.00;;;;;;6253064;28;20223;-55
2022/08/04 08:37:35;;;;;;;7.45;5.90;;;30.40;1.00;;;;;;6251774;28;20238;-53
2022/08/04 08:40:52;;;;;;;10.63;6.05;;;30.40;1.00;;;;;;6239720;28;20304;-49
2022/08/04 08:44:25;;;;;;;7.20;5.55;;;30.50;1.00;;;;;;6278455;28;20236;-55
2022/08/04 08:47:57;;;;;;;5.63;5.30;;;30.60;1.00;;;;;;6283648;28;20380;-53
2022/08/04 08:51:30;;;;;;;8.45;5.68;;;30.80;1.00;;;;;;6276369;28;20261;-54
2022/08/04 08:55:10;;;;;;;5.60;5.30;;;31.00;1.00;;;;;;6283711;28;20237;-55
2022/08/04 08:58:27;;;;;;;6.65;6.07;;;31.10;1.00;;;;;;6280513;28;20707;-55
2022/08/04 09:01:49;;;;;;;8.02;5.05;;;31.30;1.00;;;;;;6280077;28;20398;-55
2022/08/04 09:05:18;;;;;;;5.32;4.80;;;31.40;1.00;;;;;;6279809;28;20728;-55
2022/08/04 09:08:37;;;;;;;6.88;5.18;;;31.50;1.00;;;;;;6282854;28;20798;-56
2022/08/04 09:11:48;;;;;;;10.43;5.55;;;31.50;1.00;;;;;;6278619;28;20397;-54
2022/08/04 09:14:55;;;;;;;7.20;5.35;;;31.70;1.00;;;;;;6280640;28;20243;-55
2022/08/04 09:18:05;;;;;;;11.77;6.05;;;31.70;1.00;;;;;;6283047;28;20344;-56
2022/08/04 09:21:17;;;;;;;6.32;5.47;;;31.90;1.00;;;;;;6275600;28;20298;-54
2022/08/04 09:24:27;;;;;;;7.13;5.22;;;32.00;1.00;;;;;;6283094;28;20238;-54
2022/08/04 09:27:46;;;;;;;6.28;5.72;;;32.10;1.00;;;;;;6284162;28;20348;-56
2022/08/04 09:30:56;;;;;;;8.88;5.82;;;32.20;1.00;;;;;;6275810;28;20324;-54
2022/08/04 09:34:09;;;;;;;7.35;6.10;;;32.30;1.00;;;;;;6275107;28;20528;-56
2022/08/04 09:37:22;;;;;;;5.88;5.50;;;32.40;1.00;;;;;;6279724;28;20327;-55
2022/08/04 09:40:28;;;;;;;8.23;5.65;;;32.50;1.00;;;;;;6278179;28;20248;-52
2022/08/04 09:44:05;;;;;;;6.80;5.35;;;32.50;1.00;;;;;;6277980;28;20748;-54
2022/08/04 09:47:35;;;;;;;7.63;5.25;;;32.60;1.00;;;;;;6280260;28;20252;-55
2022/08/04 09:50:44;;;;;;;7.30;4.75;;;32.70;1.00;;;;;;6282513;28;20315;-55
2022/08/04 09:54:02;;;;;;;7.13;4.57;;;32.90;1.00;;;;;;6276001;28;20722;-54
2022/08/04 09:57:14;;;;;;;5.25;5.05;;;32.90;1.00;;;;;;6266799;28;20225;-54
2022/08/04 10:00:19;;;;;;;4.70;4.38;;;33.00;1.00;;;;;;6279133;28;20596;-55
2022/08/04 10:03:48;;;;;;;3.65;3.50;;;33.10;1.00;;;;;;6255493;28;20236;-49
2022/08/04 10:07:09;;;;;;;4.72;4.00;;;33.20;1.00;;;;;;6270423;28;20781;-54
2022/08/04 10:10:23;;;;;;;3.60;3.50;;;33.40;1.00;;;;;;6277687;28;20292;-53
2022/08/04 10:13:39;;;;;;;4.28;4.00;;;33.60;1.00;;;;;;6281777;28;20722;-56
2022/08/04 10:16:52;;;;;;;3.42;3.22;;;33.70;1.00;;;;;;6275982;28;20351;-54
2022/08/04 10:20:04;;;;;;;3.75;3.65;;;33.80;1.00;;;;;;6278848;28;20726;-57
2022/08/04 10:23:12;;;;;;;4.07;3.78;;;33.80;1.00;;;;;;6278874;28;20329;-54
2022/08/04 10:26:33;;;;;;;3.75;3.65;;;33.90;1.00;;;;;;6278269;28;20648;-55
2022/08/04 10:29:42;;;;;;;3.95;3.70;;;34.10;1.00;;;;;;6281118;28;20282;-56
2022/08/04 10:32:53;;;;;;;3.80;3.60;;;34.10;1.00;;;;;;6270896;28;20368;-54
2022/08/04 10:36:03;;;;;;;4.38;3.35;;;34.10;1.00;;;;;;6282373;28;20241;-54
2022/08/04 10:39:09;;;;;;;5.35;3.15;;;34.20;1.00;;;;;;6279752;28;20322;-56
2022/08/04 10:42:41;;;;;;;3.63;3.42;;;34.30;1.00;;;;;;6279687;28;20248;-54
2022/08/04 10:45:49;;;;;;;3.60;3.30;;;34.30;1.00;;;;;;6281060;28;20312;-49
2022/08/04 10:49:04;;;;;;;3.67;3.47;;;34.40;1.00;;;;;;6282272;28;20279;-55
2022/08/04 10:52:15;;;;;;;4.10;3.13;;;34.50;1.00;;;;;;6277460;28;20320;-54
2022/08/04 10:55:27;;;;;;;3.90;3.60;;;34.50;1.00;;;;;;6285353;28;20845;-54
2022/08/04 10:58:57;;;;;;;3.40;3.30;;;34.60;1.00;;;;;;6271073;28;20396;-53
2022/08/04 11:02:09;;;;;;;3.50;3.38;;;34.70;1.00;;;;;;6284569;28;20229;-53
2022/08/04 11:05:27;;;;;;;2.95;2.95;;;34.50;1.00;;;;;;6281029;28;20273;-54
2022/08/04 11:08:35;;;;;;;3.33;3.22;;;34.60;1.00;;;;;;6284215;28;20384;-55
2022/08/04 11:11:43;;;;;;;3.47;3.28;;;34.70;1.00;;;;;;6285842;28;20225;-55
2022/08/04 11:15:10;;;;;;;4.05;3.13;;;34.80;1.00;;;;;;6275279;28;20295;-53
2022/08/04 11:18:18;;;;;;;2.80;2.80;;;35.00;1.00;;;;;;6285802;28;20352;-53
2022/08/04 11:21:28;;;;;;;3.30;3.10;;;35.00;1.00;;;;;;6285303;28;20241;-53
2022/08/04 11:24:36;;;;;;;3.53;3.22;;;35.00;1.00;;;;;;6276996;28;20234;-54
2022/08/04 11:27:50;;;;;;;3.90;3.63;;;35.10;1.00;;;;;;6285817;28;20311;-53
2022/08/04 11:31:04;;;;;;;3.35;3.17;;;35.20;1.00;;;;;;6278232;28;20605;-55
2022/08/04 11:34:19;;;;;;;3.45;3.30;;;35.20;1.00;;;;;;6280811;28;20627;-54
2022/08/04 11:37:27;;;;;;;3.40;3.30;;;35.30;1.00;;;;;;6282732;28;20320;-48
2022/08/04 11:40:37;;;;;;;3.47;3.30;;;35.40;1.00;;;;;;6278431;28;20234;-54
2022/08/04 11:43:45;;;;;;;3.70;3.42;;;35.50;1.00;;;;;;6284780;28;20493;-53
2022/08/04 11:47:16;;;;;;;3.70;3.50;;;35.60;1.00;;;;;;6280604;28;20294;-54
2022/08/04 11:50:25;;;;;;;3.50;3.20;;;35.70;1.00;;;;;;6284269;28;20240;-54
2022/08/04 11:53:29;;;;;;;3.63;3.30;;;35.80;1.00;;;;;;6285379;28;20374;-53
2022/08/04 11:56:38;;;;;;;3.72;3.42;;;35.70;1.00;;;;;;6283154;28;20256;-54
2022/08/04 11:59:42;;;;;;;3.90;3.10;;;35.70;1.00;;;;;;6276550;28;20234;-54
2022/08/04 12:03:11;;;;;;;3.28;3.17;;;35.80;1.00;;;;;;6277456;28;20225;-53
2022/08/04 12:06:20;;;;;;;8.85;3.85;;;35.80;1.00;;;;;;6280022;28;20717;-54
2022/08/04 12:09:31;;;;;;;4.00;3.47;;;35.90;1.00;;;;;;6283348;28;20340;-54
2022/08/04 12:12:39;;;;;;;3.72;3.47;;;36.00;1.00;;;;;;6284923;28;20328;-54
2022/08/04 12:15:52;;;;;;;3.60;3.20;;;36.10;1.00;;;;;;6284185;28;20828;-55
2022/08/04 12:18:59;;;;;;;5.25;3.08;;;36.10;1.00;;;;;;6277747;28;20234;-55
2022/08/04 12:22:10;;;;;;;4.60;3.40;;;36.10;1.00;;;;;;6285608;28;20619;-53
2022/08/04 12:25:19;;;;;;;3.70;3.38;;;36.20;1.00;;;;;;6281005;28;20237;-55
2022/08/04 12:28:29;;;;;;;3.33;3.22;;;36.30;1.00;;;;;;6285074;28;20730;-55
2022/08/04 12:31:56;;;;;;;3.92;3.38;;;36.40;1.00;;;;;;6282400;28;20247;-54
2022/08/04 12:35:09;;;;;;;3.35;3.15;;;36.40;1.00;;;;;;6283223;28;20233;-56
2022/08/04 12:38:13;;;;;;;3.83;3.53;;;36.30;1.00;;;;;;6284789;28;20693;-54
2022/08/04 12:41:22;;;;;;;3.38;3.22;;;36.30;1.00;;;;;;6283747;28;20903;-55
2022/08/04 12:44:33;;;;;;;3.35;3.10;;;36.30;1.00;;;;;;6284372;28;20244;-54
2022/08/04 12:47:40;;;;;;;4.63;3.65;;;36.20;1.00;;;;;;6283717;28;20237;-54
2022/08/04 12:50:50;;;;;;;3.45;3.22;;;36.00;1.00;;;;;;6254680;28;20451;-53
2022/08/04 12:53:52;;;;;;;3.20;3.03;;;36.10;1.00;;;;;;6276558;28;20300;-55
2022/08/04 12:56:58;;;;;;;2.95;2.75;;;36.20;1.00;;;;;;6283780;28;20366;-54
2022/08/04 13:00:02;;;;;;;4.45;3.35;;;36.30;1.00;;;;;;6282088;28;20233;-55
2022/08/04 13:03:08;;;;;;;3.30;3.10;;;36.30;1.00;;;;;;6279217;28;20292;-54
2022/08/04 13:06:15;;;;;;;3.63;3.10;;;36.30;1.00;;;;;;6284568;28;20237;-55
2022/08/04 13:09:29;;;;;;;3.10;3.00;;;36.30;1.00;;;;;;6283202;28;20647;-54
2022/08/04 13:12:33;;;;;;;2.90;2.70;;;36.20;1.00;;;;;;6282525;28;20298;-54
2022/08/04 13:15:37;;;;;;;3.20;3.10;;;36.20;1.00;;;;;;6283132;28;20363;-56
2022/08/04 13:18:58;;;;;;;2.90;2.80;;;36.40;1.00;;;;;;6275274;28;20324;-53
2022/08/04 13:22:09;;;;;;;2.95;2.75;;;36.40;1.00;;;;;;6279114;28;20278;-49
2022/08/04 13:25:13;;;;;;;3.33;3.10;;;36.40;1.00;;;;;;6282479;28;20824;-53
2022/08/04 13:28:40;;;;;;;3.22;2.90;;;36.40;1.00;;;;;;6277242;28;20229;-54
2022/08/04 13:31:46;;;;;;;3.83;3.22;;;36.20;1.00;;;;;;6275325;28;20225;-52
2022/08/04 13:34:57;;;;;;;2.85;2.58;;;36.00;1.00;;;;;;6281735;28;20676;-54
2022/08/04 13:38:02;;;;;;;2.67;2.35;;;36.00;1.00;;;;;;6281393;28;20233;-54
2022/08/04 13:41:07;;;;;;;3.33;2.47;;;36.00;1.00;;;;;;6276547;28;20272;-53
2022/08/04 13:44:11;;;;;;;3.45;3.15;;;36.10;1.00;;;;;;6283052;28;20376;-54
2022/08/04 13:47:26;;;;;;;2.70;2.55;;;36.10;1.00;;;;;;6280335;28;20254;-54
2022/08/04 13:50:32;;;;;;;2.40;2.40;;;36.30;1.00;;;;;;6282974;28;20253;-54
2022/08/04 13:53:38;;;;;;;2.30;2.30;;;36.40;1.00;;;;;;6282365;28;20256;-54
2022/08/04 13:56:49;;;;;;;2.55;2.30;;;36.40;1.00;;;;;;6275825;28;20229;-55
2022/08/04 13:59:57;;;;;;;2.72;2.63;;;36.50;1.00;;;;;;6274446;28;20248;-55
2022/08/04 14:03:02;;;;;;;2.78;2.50;;;36.60;1.00;;;;;;6266895;28;20388;-54
2022/08/04 14:06:28;;;;;;;2.50;2.40;;;36.70;1.00;;;;;;6283005;28;20238;-53
2022/08/04 14:09:34;;;;;;;2.35;2.25;;;36.60;1.00;;;;;;6282468;28;20714;-54
2022/08/04 14:12:44;;;;;;;4.03;2.45;;;36.50;1.00;;;;;;6278314;28;20394;-55
2022/08/04 14:15:50;;;;;;;2.05;1.95;;;36.60;1.00;;;;;;6282096;28;20233;-53
2022/08/04 14:19:05;;;;;;;5.47;2.20;;;36.60;1.00;;;;;;6277696;28;20739;-53
2022/08/04 14:22:18;;;;;;;2.65;2.55;;;36.60;1.00;;;;;;6282778;28;20248;-54
2022/08/04 14:25:22;;;;;;;2.45;2.35;;;36.70;1.00;;;;;;6279220;28;20316;-55
2022/08/04 14:28:37;;;;;;;2.28;2.17;;;36.90;1.00;;;;;;6272222;28;20595;-55
2022/08/04 14:32:02;;;;;;;2.50;2.13;;;36.60;1.00;;;;;;6267496;28;20229;-55
2022/08/04 14:35:14;;;;;;;2.25;2.15;;;36.60;1.00;;;;;;6275082;28;20225;-54
2022/08/04 14:38:17;;;;;;;2.33;2.10;;;36.60;1.00;;;;;;6279045;28;20522;-53
2022/08/04 14:41:24;;;;;;;2.40;2.30;;;36.80;1.00;;;;;;6277373;28;20245;-55
2022/08/04 14:44:27;;;;;;;3.53;2.40;;;36.80;1.00;;;;;;6281932;28;20312;-53
2022/08/04 14:47:40;;;;;;;2.50;2.40;;;36.80;1.00;;;;;;6280487;28;20239;-54
2022/08/04 14:50:54;;;;;;;2.63;2.50;;;36.90;1.00;;;;;;6274964;28;20318;-54
2022/08/04 14:53:57;;;;;;;4.63;2.42;;;36.90;1.00;;;;;;6281305;28;20477;-55
2022/08/04 14:57:06;;;;;;;2.88;2.60;;;36.90;1.00;;;;;;6281712;28;20237;-54
2022/08/04 15:00:10;;;;;;;4.65;2.03;;;36.90;1.00;;;;;;6280612;28;20789;-58
2022/08/04 15:03:20;;;;;;;2.70;2.60;;;36.80;1.00;;;;;;6281009;28;20290;-54
2022/08/04 15:06:25;;;;;;;3.65;2.75;;;36.90;1.00;;;;;;6281821;28;20742;-54
2022/08/04 15:09:29;;;;;;;2.10;2.10;;;36.80;1.00;;;;;;6279620;28;20392;-55
2022/08/04 15:12:33;;;;;;;2.50;2.17;;;36.80;1.00;;;;;;6276995;28;20275;-54
2022/08/04 15:15:36;;;;;;;4.25;2.80;;;36.80;1.00;;;;;;6281291;28;20269;-54
2022/08/04 15:18:40;;;;;;;4.10;2.45;;;36.90;1.00;;;;;;6277404;28;20241;-54
2022/08/04 15:21:43;;;;;;;2.72;2.30;;;36.80;1.00;;;;;;6281306;28;20240;-54
2022/08/04 15:24:46;;;;;;;2.38;2.38;;;36.80;1.00;;;;;;6281470;28;20316;-55
2022/08/04 15:27:59;;;;;;;2.30;2.20;;;36.90;1.00;;;;;;6278875;28;20513;-54
2022/08/04 15:31:05;;;;;;;2.15;2.08;;;36.90;1.00;;;;;;6272851;28;20238;-55
2022/08/04 15:34:27;;;;;;;2.00;1.88;;;36.80;1.00;;;;;;6280577;28;20429;-54
2022/08/04 15:37:38;;;;;;;2.35;2.15;;;37.00;1.00;;;;;;6275572;28;20766;-55
2022/08/04 15:40:48;;;;;;;2.40;2.20;;;37.00;1.00;;;;;;6283353;28;20328;-55
2022/08/04 15:44:14;;;;;;;2.28;2.20;;;36.90;1.00;;;;;;6280090;28;20335;-54
2022/08/04 15:47:20;;;;;;;2.25;2.05;;;36.80;1.00;;;;;;6275175;28;20232;-54
2022/08/04 15:50:23;;;;;;;2.03;2.03;;;36.70;1.00;;;;;;6285156;28;20252;-53
2022/08/04 15:53:32;;;;;;;2.42;2.20;;;36.70;1.00;;;;;;6285521;28;20667;-55
2022/08/04 15:56:56;;;;;;;2.38;2.33;;;36.70;1.00;;;;;;6280272;28;20234;-53
2022/08/04 16:00:08;;;;;;;1.90;1.85;;;36.60;1.00;;;;;;6275070;28;20244;-54
2022/08/04 16:03:41;;;;;;;2.50;2.22;;;36.70;1.00;;;;;;6285779;28;20233;-55
2022/08/04 16:07:05;;;;;;;3.83;2.60;;;36.70;1.00;;;;;;6274530;28;20379;-54
2022/08/04 16:10:36;;;;;;;4.40;2.22;;;36.70;1.00;;;;;;6284101;28;20324;-53
2022/08/04 16:14:07;;;;;;;3.55;2.03;;;36.40;1.00;;;;;;6283163;28;20316;-53
2022/08/04 16:17:18;;;;;;;4.93;2.22;;;36.30;1.00;;;;;;6269611;28;20371;-55
2022/08/04 16:20:23;;;;;;;2.05;2.05;;;36.40;1.00;;;;;;6284254;28;20320;-53
2022/08/04 16:23:46;;;;;;;2.40;2.30;;;36.40;1.00;;;;;;6282052;28;20241;-55
2022/08/04 16:27:05;;;;;;;2.85;2.45;;;36.40;1.00;;;;;;6284304;28;20233;-56
2022/08/04 16:30:11;;;;;;;2.53;2.50;;;36.20;1.00;;;;;;6283523;28;20256;-55
2022/08/04 16:33:17;;;;;;;2.47;2.38;;;36.10;1.00;;;;;;6279729;28;20237;-54
2022/08/04 16:36:58;;;;;;;2.33;2.20;;;35.90;1.00;;;;;;6284587;28;20280;-55
2022/08/04 16:40:30;;;;;;;2.42;2.40;;;35.80;1.00;;;;;;6279905;28;20236;-53
2022/08/04 16:43:39;;;;;;;2.15;2.05;;;35.60;1.00;;;;;;6278514;28;20238;-54
2022/08/04 16:46:42;;;;;;;2.40;2.30;;;35.50;1.00;;;;;;6283507;28;20274;-53
2022/08/04 16:50:07;;;;;;;2.15;2.05;;;35.40;1.00;;;;;;6275896;28;20503;-53
2022/08/04 16:53:11;;;;;;;2.15;2.00;;;35.30;1.00;;;;;;6279001;28;20732;-54
2022/08/04 16:56:35;;;;;;;2.25;2.25;;;35.10;1.00;;;;;;6282946;28;20246;-54
2022/08/04 16:59:38;;;;;;;2.10;2.05;;;35.00;1.00;;;;;;6280906;28;20265;-54
2022/08/04 17:02:42;;;;;;;3.70;2.25;;;34.90;1.00;;;;;;6282841;28;20229;-54